createdAt,value
2022-08-09T00:00:47.626Z,22.50
2022-08-09T00:04:06.221Z,23.70
2022-08-09T00:06:46.867Z,20.10
2022-08-09T00:09:31.256Z,24.20
2022-08-09T00:12:22.643Z,16.20
2022-08-09T00:15:14.826Z,22.70
2022-08-09T00:18:11.521Z,20.90
2022-08-09T00:20:56.581Z,17.50
2022-08-09T00:23:54.705Z,20.10
2022-08-09T00:26:49.693Z,33.90
2022-08-09T00:30:16.071Z,38.50
2022-08-09T00:32:43.749Z,24.80
2022-08-09T00:35:43.367Z,35.50
2022-08-09T00:38:34.027Z,31.30
2022-08-09T00:44:11.903Z,28.70
2022-08-09T00:44:28.612Z,41.80
2022-08-09T00:47:16.756Z,29.70
2022-08-09T00:50:08.037Z,32.70
2022-08-09T00:53:08.810Z,27.50
2022-08-09T00:56:05.708Z,23.50
2022-08-09T00:58:53.457Z,23.10
2022-08-09T01:02:12.875Z,23.60
2022-08-09T02:59:26.643Z,12.00
2022-08-09T03:02:24.466Z,9.00
2022-08-09T03:05:16.808Z,12.50
2022-08-09T03:08:06.038Z,11.20
2022-08-09T03:10:53.330Z,8.40
2022-08-09T03:13:59.700Z,11.90
2022-08-09T03:16:54.236Z,11.90
2022-08-09T03:19:59.709Z,10.20
2022-08-09T03:22:56.961Z,14.60
2022-08-09T03:25:58.694Z,12.50
2022-08-09T03:31:42.418Z,9.10
2022-08-09T03:34:40.710Z,11.80
2022-08-09T03:37:55.941Z,11.30
2022-08-09T03:40:32.824Z,12.10
2022-08-09T03:43:17.599Z,10.90
2022-08-09T03:46:27.157Z,15.60
2022-08-09T03:49:18.181Z,10.40
2022-08-09T03:52:04.863Z,12.00
2022-08-09T03:54:51.182Z,12.60
2022-08-09T03:57:57.447Z,13.40
2022-08-09T04:00:51.608Z,9.80
2022-08-09T04:04:00.515Z,11.90
2022-08-09T04:06:43.997Z,15.40
2022-08-09T04:09:42.078Z,21.70
2022-08-09T04:12:49.744Z,17.60
2022-08-09T04:16:18.870Z,15.00
2022-08-09T04:18:41.984Z,15.50
2022-08-09T04:21:25.908Z,15.00
2022-08-09T04:24:15.840Z,16.10
2022-08-09T04:27:03.053Z,16.70
2022-08-09T04:29:50.467Z,14.80
2022-08-09T04:32:37.367Z,15.90
2022-08-09T04:35:35.248Z,13.20
2022-08-09T04:38:23.613Z,13.00
2022-08-09T04:41:15.210Z,14.70
2022-08-09T04:44:05.662Z,13.70
2022-08-09T04:46:58.539Z,14.30
2022-08-09T04:52:45.956Z,15.30
2022-08-09T04:55:41.654Z,15.00
2022-08-09T04:58:50.823Z,15.00
2022-08-09T05:01:40.517Z,17.10
2022-08-09T05:04:30.739Z,16.40
2022-08-09T05:07:19.250Z,20.90
2022-08-09T05:10:28.469Z,17.20
2022-08-09T05:13:12.508Z,16.40
2022-08-09T05:15:59.756Z,19.80
2022-08-09T05:18:58.271Z,17.80
2022-08-09T05:21:47.241Z,23.60
2022-08-09T05:24:41.670Z,26.60
2022-08-09T05:27:25.999Z,31.20
2022-08-09T05:30:10.495Z,22.10
2022-08-09T05:32:55.275Z,23.00
2022-08-09T05:35:57.150Z,19.30
2022-08-09T05:39:01.581Z,24.60
2022-08-09T05:43:29.040Z,31.40
2022-08-09T05:51:41.594Z,23.40
2022-08-09T05:58:57.536Z,30.10
2022-08-09T06:03:10.822Z,42.40
2022-08-09T06:06:25.456Z,36.50
2022-08-09T06:09:53.963Z,45.10
2022-08-09T06:12:35.239Z,30.20
2022-08-09T06:15:24.022Z,36.60
2022-08-09T06:18:45.123Z,41.30
2022-08-09T06:21:51.468Z,49.10
2022-08-09T06:25:04.521Z,33.80
2022-08-09T06:28:08.302Z,28.60
2022-08-09T06:31:14.492Z,33.50
2022-08-09T06:34:15.543Z,36.60
2022-08-09T06:37:24.700Z,31.20
2022-08-09T06:40:37.131Z,27.30
2022-08-09T06:43:39.721Z,36.30
2022-08-09T06:47:05.766Z,39.80
2022-08-09T06:50:13.950Z,25.40
2022-08-09T06:53:20.384Z,29.30
2022-08-09T06:56:17.257Z,27.50
2022-08-09T07:00:50.387Z,19.50
2022-08-09T07:02:35.079Z,26.50
2022-08-09T07:05:58.166Z,28.40
2022-08-09T07:08:57.872Z,28.30
2022-08-09T07:12:18.161Z,30.90
2022-08-09T07:16:36.695Z,21.70
2022-08-09T07:19:05.660Z,24.50
2022-08-09T07:22:03.192Z,41.50
2022-08-09T07:25:09.845Z,38.40
2022-08-09T07:28:19.212Z,40.30
2022-08-09T07:31:45.300Z,34.60
2022-08-09T07:35:10.701Z,37.20
2022-08-09T07:38:11.923Z,30.00
2022-08-09T07:41:16.799Z,31.70
2022-08-09T07:44:16.683Z,31.40
2022-08-09T07:48:00.878Z,26.30
2022-08-09T07:52:04.947Z,33.70
2022-08-09T07:55:09.479Z,23.30
2022-08-09T07:58:26.315Z,23.60
2022-08-09T08:01:25.436Z,26.10
2022-08-09T08:04:34.582Z,21.90
2022-08-09T08:08:44.385Z,18.50
2022-08-09T08:12:08.639Z,20.80
2022-08-09T08:14:34.067Z,17.00
2022-08-09T08:17:52.058Z,18.60
2022-08-09T08:21:02.790Z,18.10
2022-08-09T08:24:11.875Z,22.50
2022-08-09T08:27:29.252Z,17.40
2022-08-09T08:31:14.987Z,22.20
2022-08-09T08:34:26.306Z,19.70
2022-08-09T08:37:40.674Z,18.40
2022-08-09T08:40:56.652Z,20.50
2022-08-09T08:44:39.560Z,12.70
2022-08-09T08:47:38.598Z,12.00
2022-08-09T08:50:49.334Z,15.70
2022-08-09T08:54:32.378Z,11.70
2022-08-09T08:58:13.902Z,13.40
2022-08-09T09:02:08.687Z,20.30
2022-08-09T09:05:13.171Z,15.30
2022-08-09T09:09:06.892Z,25.10
2022-08-09T09:12:32.055Z,7.60
2022-08-09T09:15:40.377Z,11.90
2022-08-09T09:19:42.100Z,11.00
2022-08-09T09:23:20.892Z,10.70
2022-08-09T09:26:49.398Z,7.50
2022-08-09T09:33:45.684Z,5.80
2022-08-09T09:37:26.522Z,11.40
2022-08-09T09:41:06.151Z,10.10
2022-08-09T09:44:50.975Z,15.80
2022-08-09T09:51:56.192Z,6.30
2022-08-09T09:55:27.678Z,11.20
2022-08-09T09:58:31.823Z,7.00
2022-08-09T10:02:27.105Z,8.30
2022-08-09T10:08:28.513Z,4.00
2022-08-09T10:11:53.715Z,7.10
2022-08-09T10:16:09.218Z,6.20
2022-08-09T10:18:54.697Z,6.10
2022-08-09T10:21:54.390Z,9.70
2022-08-09T10:24:47.880Z,9.20
2022-08-09T10:27:56.919Z,8.00
2022-08-09T10:34:08.942Z,7.10
2022-08-09T10:37:01.761Z,5.10
2022-08-09T10:39:54.221Z,7.10
2022-08-09T10:42:45.905Z,7.60
2022-08-09T10:45:58.730Z,6.80
2022-08-09T10:49:13.603Z,7.50
2022-08-09T10:52:43.014Z,7.80
2022-08-09T10:55:35.677Z,4.30
2022-08-09T10:58:50.253Z,5.70
2022-08-09T11:03:17.888Z,5.40
2022-08-09T11:05:24.676Z,6.20
2022-08-09T11:08:47.605Z,6.20
2022-08-09T11:11:56.045Z,7.50
2022-08-09T11:14:55.975Z,6.10
2022-08-09T11:17:43.359Z,6.00
2022-08-09T11:21:07.333Z,5.70
2022-08-09T11:24:01.102Z,8.30
2022-08-09T11:26:54.583Z,7.70
2022-08-09T11:30:04.676Z,6.50
2022-08-09T11:33:21.274Z,4.80
2022-08-09T11:36:14.786Z,5.10
2022-08-09T11:39:25.536Z,8.60
2022-08-09T11:42:42.978Z,6.00
2022-08-09T11:45:42.252Z,11.20
2022-08-09T11:48:36.440Z,11.40
2022-08-09T11:52:56.523Z,13.50
2022-08-09T11:54:34.917Z,9.00
2022-08-09T11:57:47.880Z,5.70
2022-08-09T12:00:56.124Z,11.50
2022-08-09T12:03:55.215Z,7.90
2022-08-09T12:06:55.964Z,7.10
2022-08-09T12:09:50.614Z,10.80
2022-08-09T12:12:53.202Z,7.60
2022-08-09T12:15:50.373Z,7.50
2022-08-09T12:18:40.241Z,5.80
2022-08-09T12:21:48.639Z,8.70
2022-08-09T12:25:11.320Z,7.10
2022-08-09T12:29:10.640Z,8.00
2022-08-09T12:31:58.154Z,8.70
2022-08-09T12:34:42.845Z,7.00
2022-08-09T12:37:50.600Z,4.10
2022-08-09T12:40:52.418Z,7.80
2022-08-09T12:44:06.290Z,8.10
2022-08-09T12:46:49.920Z,9.60
2022-08-09T12:49:39.785Z,9.60
2022-08-09T12:52:42.623Z,4.50
2022-08-09T12:56:12.543Z,9.80
2022-08-09T12:59:57.757Z,5.00
2022-08-09T13:03:24.474Z,7.80
2022-08-09T13:06:59.462Z,10.30
2022-08-09T13:10:13.113Z,7.70
2022-08-09T13:13:19.634Z,5.80
2022-08-09T13:17:43.942Z,6.10
2022-08-09T13:22:36.964Z,7.70
2022-08-09T13:28:35.681Z,8.50
2022-08-09T13:32:15.938Z,4.70
2022-08-09T13:35:04.255Z,6.80
2022-08-09T13:38:17.585Z,12.80
2022-08-09T13:41:51.433Z,6.30
2022-08-09T13:44:43.219Z,4.70
2022-08-09T13:47:49.642Z,7.00
2022-08-09T13:50:45.345Z,12.30
2022-08-09T13:54:19.747Z,9.80
2022-08-09T13:57:37.297Z,9.60
2022-08-09T14:00:52.686Z,5.00
2022-08-09T14:04:03.165Z,12.00
2022-08-09T14:07:06.962Z,15.20
2022-08-09T14:10:03.283Z,9.70
2022-08-09T14:13:04.266Z,12.70
2022-08-09T14:16:15.914Z,8.40
2022-08-09T14:19:06.025Z,18.20
2022-08-09T14:22:01.097Z,9.00
2022-08-09T14:24:52.240Z,5.60
2022-08-09T14:28:04.145Z,5.90
2022-08-09T14:31:00.850Z,8.80
2022-08-09T14:33:55.610Z,4.80
2022-08-09T14:36:58.989Z,5.00
2022-08-09T14:39:52.385Z,16.70
2022-08-09T14:42:49.238Z,16.10
2022-08-09T14:46:54.265Z,8.30
2022-08-09T14:48:55.347Z,3.90
2022-08-09T14:51:48.068Z,4.70
2022-08-09T14:54:40.881Z,4.20
2022-08-09T14:57:32.066Z,4.50
2022-08-09T15:00:36.506Z,9.10
2022-08-09T15:03:27.454Z,9.10
2022-08-09T15:06:18.516Z,5.20
2022-08-09T15:09:06.129Z,4.40
2022-08-09T15:11:58.198Z,8.20
2022-08-09T15:14:57.830Z,3.80
2022-08-09T15:17:59.715Z,7.10
2022-08-09T15:22:00.438Z,9.30
2022-08-09T15:24:13.135Z,7.20
2022-08-09T15:27:16.684Z,9.50
2022-08-09T15:30:57.010Z,9.20
2022-08-09T15:34:04.388Z,9.90
2022-08-09T15:37:03.861Z,17.50
2022-08-09T15:39:59.298Z,11.80
2022-08-09T15:42:57.292Z,14.50
2022-08-09T15:46:07.382Z,11.90
2022-08-09T15:49:22.928Z,9.70
2022-08-09T15:52:37.487Z,10.80
2022-08-09T15:55:59.067Z,13.60
2022-08-09T15:58:51.211Z,11.80
2022-08-09T16:01:42.224Z,10.80
2022-08-09T16:04:51.743Z,12.30
2022-08-09T16:08:29.566Z,7.60
2022-08-09T16:11:51.589Z,8.40
2022-08-09T16:14:58.001Z,8.70
2022-08-09T16:18:07.223Z,9.20
2022-08-09T16:21:31.745Z,12.80
2022-08-09T16:24:45.997Z,9.60
2022-08-09T16:28:32.162Z,4.20
2022-08-09T16:32:11.188Z,5.90
2022-08-09T16:42:15.072Z,8.10
2022-08-09T16:45:44.408Z,6.60
2022-08-09T16:49:17.658Z,3.80
2022-08-09T16:56:17.058Z,8.90
2022-08-09T16:59:57.421Z,5.20
2022-08-09T17:06:33.487Z,8.00
2022-08-09T17:09:47.872Z,10.40
2022-08-09T17:16:02.232Z,14.60
2022-08-09T17:19:11.016Z,6.70
2022-08-09T17:22:39.269Z,10.50
2022-08-09T17:25:45.832Z,7.40
2022-08-09T17:28:36.393Z,11.20
2022-08-09T17:31:49.419Z,18.90
2022-08-09T17:35:11.556Z,7.00
2022-08-09T17:38:32.206Z,10.50
2022-08-09T17:41:39.356Z,6.80
2022-08-09T17:44:57.750Z,7.70
2022-08-09T17:47:42.093Z,10.70
2022-08-09T17:50:37.316Z,5.80
2022-08-09T17:53:55.099Z,10.50
2022-08-09T17:56:50.009Z,8.00
2022-08-09T18:00:07.650Z,11.20
2022-08-09T18:02:58.966Z,9.10
2022-08-09T18:05:53.165Z,9.20
2022-08-09T18:09:42.036Z,8.60
2022-08-09T18:13:39.785Z,6.70
2022-08-09T18:16:15.438Z,12.80
2022-08-09T18:20:54.367Z,17.00
2022-08-09T18:24:10.889Z,13.80
2022-08-09T18:27:01.343Z,15.10
2022-08-09T18:30:35.148Z,13.70
2022-08-09T18:33:13.447Z,12.20
2022-08-09T18:36:01.368Z,15.50
2022-08-09T18:39:25.086Z,13.90
2022-08-09T18:42:29.625Z,17.40
2022-08-09T18:46:51.268Z,26.10
2022-08-09T18:48:42.305Z,27.60
2022-08-09T18:51:57.687Z,21.50
2022-08-09T18:54:53.607Z,23.90
2022-08-09T18:58:38.916Z,23.90
2022-08-09T19:02:02.642Z,25.20
2022-08-09T19:05:19.885Z,20.80
2022-08-09T19:08:19.878Z,28.90
2022-08-09T19:11:16.904Z,19.30
2022-08-09T19:14:55.453Z,15.10
2022-08-09T19:18:16.989Z,23.70
2022-08-09T19:21:51.972Z,18.90
2022-08-09T19:25:41.896Z,15.60
2022-08-09T19:28:28.920Z,14.70
2022-08-09T19:32:15.692Z,17.80
2022-08-09T19:35:26.737Z,24.50
2022-08-09T19:38:56.339Z,11.60
2022-08-09T19:41:45.433Z,21.30
2022-08-09T19:44:43.182Z,22.70
2022-08-09T19:47:45.243Z,35.00
2022-08-09T19:50:51.221Z,54.70
2022-08-09T19:53:45.481Z,58.30
2022-08-09T19:57:31.615Z,38.20
2022-08-09T20:00:27.940Z,28.20
2022-08-09T20:04:11.318Z,28.60
2022-08-09T20:08:00.230Z,29.40
2022-08-09T20:11:45.227Z,31.30
2022-08-09T20:14:53.154Z,25.20
2022-08-09T20:17:48.356Z,17.30
2022-08-09T20:24:31.905Z,21.70
2022-08-09T20:27:39.918Z,26.20
2022-08-09T20:30:54.038Z,21.00
2022-08-09T20:34:40.037Z,20.50
2022-08-09T20:38:22.266Z,21.90
2022-08-09T20:41:37.730Z,20.20
2022-08-09T20:48:52.701Z,19.30
2022-08-09T20:52:50.591Z,23.10
2022-08-09T20:56:19.971Z,20.80
2022-08-09T21:00:30.692Z,18.40
2022-08-09T21:05:48.782Z,18.20
2022-08-09T21:08:23.391Z,19.70
2022-08-09T21:15:34.754Z,18.10
2022-08-09T21:20:19.345Z,21.50
2022-08-09T21:23:36.055Z,20.50
2022-08-09T21:27:51.246Z,21.90
2022-08-09T21:31:13.565Z,13.00
2022-08-09T21:34:48.325Z,11.60
2022-08-09T21:37:58.977Z,18.30
2022-08-09T21:45:30.642Z,17.70
2022-08-09T21:48:49.246Z,19.70
2022-08-09T21:51:55.302Z,19.60
2022-08-09T21:55:57.587Z,24.40
2022-08-09T21:59:42.715Z,17.40
2022-08-09T22:03:19.503Z,25.30
2022-08-09T22:07:12.259Z,16.00
2022-08-09T22:10:23.190Z,19.30
2022-08-09T22:14:02.456Z,20.30
2022-08-09T22:17:32.048Z,31.10
2022-08-09T22:30:31.455Z,22.20
2022-08-09T22:52:57.582Z,33.00
2022-08-09T22:56:30.654Z,27.30
2022-08-09T23:03:31.131Z,20.50
2022-08-09T23:07:11.110Z,22.60
2022-08-09T23:10:17.731Z,18.50
2022-08-09T23:13:43.845Z,21.50
2022-08-09T23:16:56.401Z,21.70
2022-08-09T23:20:39.950Z,25.10
2022-08-09T23:24:16.088Z,16.80
2022-08-09T23:28:09.343Z,17.10
2022-08-09T23:31:37.755Z,16.20
2022-08-09T23:35:13.983Z,15.60
2022-08-09T23:38:57.367Z,15.10
2022-08-09T23:42:51.066Z,12.20
2022-08-09T23:49:40.475Z,10.60
2022-08-09T23:53:16.006Z,13.70
2022-08-09T23:56:58.123Z,10.30
